sensor_id;sensor_type;location;lat;lon;timestamp;P1;durP1;ratioP1;P2;durP2;ratioP2
37955;SDS011;23776;51.592;7.180;2024-03-02T00:01:21;4.22;;;1.92;;
37955;SDS011;23776;51.592;7.180;2024-03-02T00:03:47;5.75;;;1.77;;
37955;SDS011;23776;51.592;7.180;2024-03-02T00:06:13;3.50;;;1.80;;
37955;SDS011;23776;51.592;7.180;2024-03-02T00:08:38;3.88;;;2.00;;
37955;SDS011;23776;51.592;7.180;2024-03-02T00:11:04;4.95;;;1.90;;
37955;SDS011;23776;51.592;7.180;2024-03-02T00:13:30;4.85;;;2.33;;
37955;SDS011;23776;51.592;7.180;2024-03-02T00:15:57;4.35;;;1.90;;
37955;SDS011;23776;51.592;7.180;2024-03-02T00:18:27;4.85;;;2.53;;
37955;SDS011;23776;51.592;7.180;2024-03-02T00:20:56;4.00;;;2.00;;
37955;SDS011;23776;51.592;7.180;2024-03-02T00:23:23;4.05;;;2.55;;
37955;SDS011;23776;51.592;7.180;2024-03-02T00:25:50;3.67;;;1.67;;
37955;SDS011;23776;51.592;7.180;2024-03-02T00:28:28;3.13;;;2.05;;
37955;SDS011;23776;51.592;7.180;2024-03-02T00:30:55;5.75;;;1.80;;
37955;SDS011;23776;51.592;7.180;2024-03-02T00:33:27;4.33;;;2.00;;
37955;SDS011;23776;51.592;7.180;2024-03-02T00:38:31;5.70;;;2.10;;
37955;SDS011;23776;51.592;7.180;2024-03-02T00:41:04;4.28;;;1.58;;
37955;SDS011;23776;51.592;7.180;2024-03-02T00:43:45;7.28;;;1.65;;
37955;SDS011;23776;51.592;7.180;2024-03-02T00:46:23;4.50;;;1.70;;
37955;SDS011;23776;51.592;7.180;2024-03-02T00:48:59;4.22;;;1.60;;
37955;SDS011;23776;51.592;7.180;2024-03-02T00:51:27;3.17;;;1.73;;
37955;SDS011;23776;51.592;7.180;2024-03-02T00:53:54;2.75;;;1.45;;
37955;SDS011;23776;51.592;7.180;2024-03-02T00:56:21;3.50;;;1.88;;
37955;SDS011;23776;51.592;7.180;2024-03-02T00:58:48;3.28;;;1.52;;
37955;SDS011;23776;51.592;7.180;2024-03-02T01:01:14;5.25;;;2.13;;
37955;SDS011;23776;51.592;7.180;2024-03-02T01:03:41;2.28;;;1.50;;
37955;SDS011;23776;51.592;7.180;2024-03-02T01:06:07;3.75;;;1.55;;
37955;SDS011;23776;51.592;7.180;2024-03-02T01:08:36;2.88;;;1.60;;
37955;SDS011;23776;51.592;7.180;2024-03-02T01:11:02;3.50;;;1.55;;
37955;SDS011;23776;51.592;7.180;2024-03-02T01:13:28;3.28;;;1.30;;
37955;SDS011;23776;51.592;7.180;2024-03-02T01:15:54;3.60;;;1.70;;
37955;SDS011;23776;51.592;7.180;2024-03-02T01:18:19;3.13;;;1.50;;
37955;SDS011;23776;51.592;7.180;2024-03-02T01:20:45;3.40;;;1.45;;
37955;SDS011;23776;51.592;7.180;2024-03-02T01:23:11;3.60;;;1.17;;
37955;SDS011;23776;51.592;7.180;2024-03-02T01:25:37;1.75;;;1.08;;
37955;SDS011;23776;51.592;7.180;2024-03-02T01:28:02;2.38;;;1.30;;
37955;SDS011;23776;51.592;7.180;2024-03-02T01:30:29;2.28;;;1.20;;
37955;SDS011;23776;51.592;7.180;2024-03-02T01:32:54;2.03;;;1.15;;
37955;SDS011;23776;51.592;7.180;2024-03-02T01:35:20;2.60;;;1.40;;
37955;SDS011;23776;51.592;7.180;2024-03-02T01:37:45;2.33;;;1.30;;
37955;SDS011;23776;51.592;7.180;2024-03-02T01:40:11;2.78;;;1.30;;
37955;SDS011;23776;51.592;7.180;2024-03-02T01:42:37;3.90;;;1.55;;
37955;SDS011;23776;51.592;7.180;2024-03-02T01:45:07;2.95;;;1.20;;
37955;SDS011;23776;51.592;7.180;2024-03-02T01:47:33;5.25;;;1.23;;
37955;SDS011;23776;51.592;7.180;2024-03-02T01:49:59;2.30;;;0.90;;
37955;SDS011;23776;51.592;7.180;2024-03-02T01:52:25;3.42;;;1.35;;
37955;SDS011;23776;51.592;7.180;2024-03-02T01:54:52;3.67;;;1.23;;
37955;SDS011;23776;51.592;7.180;2024-03-02T01:57:17;4.93;;;1.70;;
37955;SDS011;23776;51.592;7.180;2024-03-02T01:59:43;2.50;;;1.23;;
37955;SDS011;23776;51.592;7.180;2024-03-02T02:02:09;3.78;;;1.00;;
37955;SDS011;23776;51.592;7.180;2024-03-02T02:04:35;2.40;;;1.20;;
37955;SDS011;23776;51.592;7.180;2024-03-02T02:07:00;5.53;;;1.40;;
37955;SDS011;23776;51.592;7.180;2024-03-02T02:09:26;3.65;;;1.30;;
37955;SDS011;23776;51.592;7.180;2024-03-02T02:11:52;2.13;;;1.08;;
37955;SDS011;23776;51.592;7.180;2024-03-02T02:14:17;4.22;;;1.58;;
37955;SDS011;23776;51.592;7.180;2024-03-02T02:16:43;2.67;;;1.15;;
37955;SDS011;23776;51.592;7.180;2024-03-02T02:19:09;1.85;;;1.13;;
37955;SDS011;23776;51.592;7.180;2024-03-02T02:21:35;5.07;;;1.10;;
37955;SDS011;23776;51.592;7.180;2024-03-02T02:24:01;3.40;;;1.30;;
37955;SDS011;23776;51.592;7.180;2024-03-02T02:26:28;2.85;;;1.20;;
37955;SDS011;23776;51.592;7.180;2024-03-02T02:28:54;4.78;;;1.50;;
37955;SDS011;23776;51.592;7.180;2024-03-02T02:31:19;3.15;;;1.10;;
37955;SDS011;23776;51.592;7.180;2024-03-02T02:33:45;3.05;;;1.75;;
37955;SDS011;23776;51.592;7.180;2024-03-02T02:36:11;2.05;;;1.20;;
37955;SDS011;23776;51.592;7.180;2024-03-02T02:38:37;3.80;;;1.30;;
37955;SDS011;23776;51.592;7.180;2024-03-02T02:41:07;2.05;;;1.40;;
37955;SDS011;23776;51.592;7.180;2024-03-02T02:43:33;5.85;;;1.15;;
37955;SDS011;23776;51.592;7.180;2024-03-02T02:45:59;4.65;;;1.10;;
37955;SDS011;23776;51.592;7.180;2024-03-02T02:48:24;4.47;;;1.65;;
37955;SDS011;23776;51.592;7.180;2024-03-02T02:50:50;6.30;;;1.50;;
37955;SDS011;23776;51.592;7.180;2024-03-02T02:53:16;4.88;;;1.35;;
37955;SDS011;23776;51.592;7.180;2024-03-02T02:55:41;6.15;;;1.60;;
37955;SDS011;23776;51.592;7.180;2024-03-02T02:58:08;2.03;;;1.17;;
37955;SDS011;23776;51.592;7.180;2024-03-02T03:00:34;3.88;;;1.38;;
37955;SDS011;23776;51.592;7.180;2024-03-02T03:03:01;5.53;;;1.38;;
37955;SDS011;23776;51.592;7.180;2024-03-02T03:05:27;2.28;;;1.15;;
37955;SDS011;23776;51.592;7.180;2024-03-02T03:07:53;3.65;;;1.40;;
37955;SDS011;23776;51.592;7.180;2024-03-02T03:10:18;4.45;;;1.20;;
37955;SDS011;23776;51.592;7.180;2024-03-02T03:12:47;3.05;;;1.13;;
37955;SDS011;23776;51.592;7.180;2024-03-02T03:15:12;4.95;;;1.30;;
37955;SDS011;23776;51.592;7.180;2024-03-02T03:17:39;3.67;;;1.13;;
37955;SDS011;23776;51.592;7.180;2024-03-02T03:20:05;3.38;;;1.05;;
37955;SDS011;23776;51.592;7.180;2024-03-02T03:22:34;1.70;;;1.00;;
37955;SDS011;23776;51.592;7.180;2024-03-02T03:25:03;4.93;;;1.08;;
37955;SDS011;23776;51.592;7.180;2024-03-02T03:27:29;6.45;;;1.20;;
37955;SDS011;23776;51.592;7.180;2024-03-02T03:29:55;2.30;;;1.23;;
37955;SDS011;23776;51.592;7.180;2024-03-02T03:32:20;3.05;;;1.30;;
37955;SDS011;23776;51.592;7.180;2024-03-02T03:34:46;2.17;;;1.20;;
37955;SDS011;23776;51.592;7.180;2024-03-02T03:37:13;5.18;;;1.10;;
37955;SDS011;23776;51.592;7.180;2024-03-02T03:39:38;6.40;;;1.70;;
37955;SDS011;23776;51.592;7.180;2024-03-02T03:42:04;2.78;;;1.30;;
37955;SDS011;23776;51.592;7.180;2024-03-02T03:44:30;2.22;;;1.20;;
37955;SDS011;23776;51.592;7.180;2024-03-02T03:46:55;2.88;;;1.00;;
37955;SDS011;23776;51.592;7.180;2024-03-02T03:49:21;2.42;;;1.23;;
37955;SDS011;23776;51.592;7.180;2024-03-02T03:51:46;4.20;;;1.52;;
37955;SDS011;23776;51.592;7.180;2024-03-02T03:54:12;3.30;;;1.05;;
37955;SDS011;23776;51.592;7.180;2024-03-02T03:56:38;3.70;;;1.10;;
37955;SDS011;23776;51.592;7.180;2024-03-02T03:59:03;4.40;;;1.38;;
37955;SDS011;23776;51.592;7.180;2024-03-02T04:01:29;3.13;;;1.17;;
37955;SDS011;23776;51.592;7.180;2024-03-02T04:03:56;2.03;;;0.93;;
37955;SDS011;23776;51.592;7.180;2024-03-02T04:06:22;3.28;;;1.10;;
37955;SDS011;23776;51.592;7.180;2024-03-02T04:08:48;1.48;;;0.88;;
37955;SDS011;23776;51.592;7.180;2024-03-02T04:11:13;3.15;;;1.10;;
37955;SDS011;23776;51.592;7.180;2024-03-02T04:13:39;3.80;;;1.10;;
37955;SDS011;23776;51.592;7.180;2024-03-02T04:16:05;1.55;;;0.68;;
37955;SDS011;23776;51.592;7.180;2024-03-02T04:18:30;2.28;;;1.02;;
37955;SDS011;23776;51.592;7.180;2024-03-02T04:20:57;2.25;;;0.93;;
37955;SDS011;23776;51.592;7.180;2024-03-02T04:23:24;2.58;;;1.10;;
37955;SDS011;23776;51.592;7.180;2024-03-02T04:25:52;4.47;;;1.30;;
37955;SDS011;23776;51.592;7.180;2024-03-02T04:28:18;4.32;;;1.25;;
37955;SDS011;23776;51.592;7.180;2024-03-02T04:30:44;5.63;;;1.70;;
37955;SDS011;23776;51.592;7.180;2024-03-02T04:33:09;4.30;;;1.73;;
37955;SDS011;23776;51.592;7.180;2024-03-02T04:35:38;3.67;;;1.17;;
37955;SDS011;23776;51.592;7.180;2024-03-02T04:38:03;2.38;;;1.02;;
37955;SDS011;23776;51.592;7.180;2024-03-02T04:40:29;1.83;;;1.10;;
37955;SDS011;23776;51.592;7.180;2024-03-02T04:42:55;2.72;;;1.25;;
37955;SDS011;23776;51.592;7.180;2024-03-02T04:45:21;2.55;;;1.05;;
37955;SDS011;23776;51.592;7.180;2024-03-02T04:47:46;2.00;;;0.90;;
37955;SDS011;23776;51.592;7.180;2024-03-02T04:50:12;1.95;;;1.10;;
37955;SDS011;23776;51.592;7.180;2024-03-02T04:52:37;4.15;;;1.65;;
37955;SDS011;23776;51.592;7.180;2024-03-02T04:55:03;3.88;;;1.35;;
37955;SDS011;23776;51.592;7.180;2024-03-02T04:57:42;3.45;;;1.17;;
37955;SDS011;23776;51.592;7.180;2024-03-02T05:00:08;5.50;;;1.25;;
37955;SDS011;23776;51.592;7.180;2024-03-02T05:02:34;3.72;;;1.17;;
37955;SDS011;23776;51.592;7.180;2024-03-02T05:05:00;4.95;;;1.20;;
37955;SDS011;23776;51.592;7.180;2024-03-02T05:07:25;6.45;;;1.23;;
37955;SDS011;23776;51.592;7.180;2024-03-02T05:09:51;3.75;;;1.58;;
37955;SDS011;23776;51.592;7.180;2024-03-02T05:12:17;2.42;;;1.17;;
37955;SDS011;23776;51.592;7.180;2024-03-02T05:15:12;2.63;;;1.25;;
37955;SDS011;23776;51.592;7.180;2024-03-02T05:17:39;3.83;;;1.33;;
37955;SDS011;23776;51.592;7.180;2024-03-02T05:20:06;4.53;;;1.30;;
37955;SDS011;23776;51.592;7.180;2024-03-02T05:22:33;2.17;;;1.10;;
37955;SDS011;23776;51.592;7.180;2024-03-02T05:24:59;6.40;;;2.13;;
37955;SDS011;23776;51.592;7.180;2024-03-02T05:27:26;2.08;;;1.00;;
37955;SDS011;23776;51.592;7.180;2024-03-02T05:29:55;2.97;;;0.85;;
37955;SDS011;23776;51.592;7.180;2024-03-02T05:32:20;7.32;;;1.40;;
37955;SDS011;23776;51.592;7.180;2024-03-02T05:34:46;2.95;;;1.30;;
37955;SDS011;23776;51.592;7.180;2024-03-02T05:37:11;1.48;;;0.80;;
37955;SDS011;23776;51.592;7.180;2024-03-02T05:39:37;1.90;;;1.02;;
37955;SDS011;23776;51.592;7.180;2024-03-02T05:42:03;2.38;;;1.10;;
37955;SDS011;23776;51.592;7.180;2024-03-02T05:44:29;3.20;;;1.25;;
37955;SDS011;23776;51.592;7.180;2024-03-02T05:46:54;1.35;;;1.00;;
37955;SDS011;23776;51.592;7.180;2024-03-02T05:49:20;2.20;;;0.98;;
37955;SDS011;23776;51.592;7.180;2024-03-02T05:51:46;4.15;;;1.25;;
37955;SDS011;23776;51.592;7.180;2024-03-02T05:54:12;2.70;;;1.55;;
37955;SDS011;23776;51.592;7.180;2024-03-02T05:56:37;2.60;;;1.60;;
37955;SDS011;23776;51.592;7.180;2024-03-02T05:59:03;3.40;;;1.15;;
37955;SDS011;23776;51.592;7.180;2024-03-02T06:01:44;4.22;;;1.40;;
37955;SDS011;23776;51.592;7.180;2024-03-02T06:04:09;6.80;;;1.20;;
37955;SDS011;23776;51.592;7.180;2024-03-02T06:06:39;7.20;;;1.70;;
37955;SDS011;23776;51.592;7.180;2024-03-02T06:09:05;6.10;;;1.40;;
37955;SDS011;23776;51.592;7.180;2024-03-02T06:11:37;3.10;;;1.58;;
37955;SDS011;23776;51.592;7.180;2024-03-02T06:14:03;3.28;;;1.13;;
37955;SDS011;23776;51.592;7.180;2024-03-02T06:16:29;5.50;;;1.77;;
37955;SDS011;23776;51.592;7.180;2024-03-02T06:18:55;2.70;;;1.35;;
37955;SDS011;23776;51.592;7.180;2024-03-02T06:21:23;3.50;;;1.77;;
37955;SDS011;23776;51.592;7.180;2024-03-02T06:23:49;5.18;;;1.45;;
37955;SDS011;23776;51.592;7.180;2024-03-02T06:26:15;2.75;;;1.55;;
37955;SDS011;23776;51.592;7.180;2024-03-02T06:28:40;2.63;;;1.55;;
37955;SDS011;23776;51.592;7.180;2024-03-02T06:31:06;3.83;;;1.30;;
37955;SDS011;23776;51.592;7.180;2024-03-02T06:33:32;4.72;;;1.88;;
37955;SDS011;23776;51.592;7.180;2024-03-02T06:35:57;5.35;;;1.98;;
37955;SDS011;23776;51.592;7.180;2024-03-02T06:38:23;4.78;;;1.92;;
37955;SDS011;23776;51.592;7.180;2024-03-02T06:40:48;3.40;;;1.50;;
37955;SDS011;23776;51.592;7.180;2024-03-02T06:43:14;2.97;;;1.50;;
37955;SDS011;23776;51.592;7.180;2024-03-02T06:45:40;3.80;;;1.90;;
37955;SDS011;23776;51.592;7.180;2024-03-02T06:48:06;4.78;;;2.08;;
37955;SDS011;23776;51.592;7.180;2024-03-02T06:50:32;2.65;;;1.60;;
37955;SDS011;23776;51.592;7.180;2024-03-02T06:52:57;3.20;;;1.83;;
37955;SDS011;23776;51.592;7.180;2024-03-02T06:55:23;5.43;;;1.92;;
37955;SDS011;23776;51.592;7.180;2024-03-02T06:57:49;4.13;;;2.08;;
37955;SDS011;23776;51.592;7.180;2024-03-02T07:00:15;8.55;;;2.70;;
37955;SDS011;23776;51.592;7.180;2024-03-02T07:02:43;5.07;;;2.20;;
37955;SDS011;23776;51.592;7.180;2024-03-02T07:05:09;3.75;;;2.10;;
37955;SDS011;23776;51.592;7.180;2024-03-02T07:07:36;4.30;;;2.22;;
37955;SDS011;23776;51.592;7.180;2024-03-02T07:10:02;5.65;;;2.30;;
37955;SDS011;23776;51.592;7.180;2024-03-02T07:12:32;4.90;;;1.95;;
37955;SDS011;23776;51.592;7.180;2024-03-02T07:14:58;5.63;;;2.15;;
37955;SDS011;23776;51.592;7.180;2024-03-02T07:17:32;6.07;;;2.17;;
37955;SDS011;23776;51.592;7.180;2024-03-02T07:19:58;5.68;;;2.00;;
37955;SDS011;23776;51.592;7.180;2024-03-02T07:22:23;4.65;;;2.10;;
37955;SDS011;23776;51.592;7.180;2024-03-02T07:24:49;4.80;;;2.13;;
37955;SDS011;23776;51.592;7.180;2024-03-02T07:27:15;6.65;;;2.85;;
37955;SDS011;23776;51.592;7.180;2024-03-02T07:29:42;6.38;;;2.55;;
37955;SDS011;23776;51.592;7.180;2024-03-02T07:32:08;9.02;;;2.30;;
37955;SDS011;23776;51.592;7.180;2024-03-02T07:34:34;7.05;;;2.53;;
37955;SDS011;23776;51.592;7.180;2024-03-02T07:37:00;5.68;;;2.50;;
37955;SDS011;23776;51.592;7.180;2024-03-02T07:39:26;5.60;;;2.20;;
37955;SDS011;23776;51.592;7.180;2024-03-02T07:41:52;7.35;;;2.20;;
37955;SDS011;23776;51.592;7.180;2024-03-02T07:44:18;3.42;;;2.00;;
37955;SDS011;23776;51.592;7.180;2024-03-02T07:46:44;6.00;;;2.78;;
37955;SDS011;23776;51.592;7.180;2024-03-02T07:49:15;4.65;;;2.38;;
37955;SDS011;23776;51.592;7.180;2024-03-02T07:51:41;5.93;;;2.50;;
37955;SDS011;23776;51.592;7.180;2024-03-02T07:54:07;5.80;;;2.65;;
37955;SDS011;23776;51.592;7.180;2024-03-02T07:56:32;7.07;;;2.83;;
37955;SDS011;23776;51.592;7.180;2024-03-02T07:58:58;9.63;;;2.50;;
37955;SDS011;23776;51.592;7.180;2024-03-02T08:01:31;4.30;;;2.30;;
37955;SDS011;23776;51.592;7.180;2024-03-02T08:03:58;3.90;;;2.05;;
37955;SDS011;23776;51.592;7.180;2024-03-02T08:06:25;7.43;;;2.45;;
37955;SDS011;23776;51.592;7.180;2024-03-02T08:08:54;7.70;;;2.17;;
37955;SDS011;23776;51.592;7.180;2024-03-02T08:11:21;4.68;;;2.72;;
37955;SDS011;23776;51.592;7.180;2024-03-02T08:13:52;5.68;;;2.22;;
37955;SDS011;23776;51.592;7.180;2024-03-02T08:16:23;3.65;;;2.28;;
37955;SDS011;23776;51.592;7.180;2024-03-02T08:18:52;8.23;;;2.50;;
37955;SDS011;23776;51.592;7.180;2024-03-02T08:21:20;3.75;;;2.08;;
37955;SDS011;23776;51.592;7.180;2024-03-02T08:26:53;5.55;;;2.50;;
37955;SDS011;23776;51.592;7.180;2024-03-02T08:29:21;3.50;;;1.90;;
37955;SDS011;23776;51.592;7.180;2024-03-02T08:31:48;10.15;;;2.40;;
37955;SDS011;23776;51.592;7.180;2024-03-02T08:34:17;7.28;;;2.42;;
37955;SDS011;23776;51.592;7.180;2024-03-02T08:36:47;5.43;;;2.20;;
37955;SDS011;23776;51.592;7.180;2024-03-02T08:39:22;2.95;;;2.03;;
37955;SDS011;23776;51.592;7.180;2024-03-02T08:41:49;7.13;;;2.10;;
37955;SDS011;23776;51.592;7.180;2024-03-02T08:44:16;4.90;;;2.35;;
37955;SDS011;23776;51.592;7.180;2024-03-02T08:46:42;6.53;;;2.13;;
37955;SDS011;23776;51.592;7.180;2024-03-02T08:50:05;4.43;;;1.70;;
37955;SDS011;23776;51.592;7.180;2024-03-02T08:52:33;10.23;;;2.42;;
37955;SDS011;23776;51.592;7.180;2024-03-02T08:55:03;6.85;;;2.35;;
37955;SDS011;23776;51.592;7.180;2024-03-02T08:57:40;4.90;;;2.05;;
37955;SDS011;23776;51.592;7.180;2024-03-02T09:00:08;3.20;;;1.75;;
37955;SDS011;23776;51.592;7.180;2024-03-02T09:02:38;5.40;;;2.00;;
37955;SDS011;23776;51.592;7.180;2024-03-02T09:05:06;6.80;;;2.22;;
37955;SDS011;23776;51.592;7.180;2024-03-02T09:07:35;6.63;;;1.73;;
37955;SDS011;23776;51.592;7.180;2024-03-02T09:10:01;8.10;;;1.95;;
37955;SDS011;23776;51.592;7.180;2024-03-02T09:22:02;3.60;;;1.63;;
37955;SDS011;23776;51.592;7.180;2024-03-02T09:24:30;4.90;;;1.45;;
37955;SDS011;23776;51.592;7.180;2024-03-02T09:26:56;3.00;;;1.23;;
37955;SDS011;23776;51.592;7.180;2024-03-02T09:29:22;3.45;;;1.20;;
37955;SDS011;23776;51.592;7.180;2024-03-02T09:31:47;3.42;;;1.30;;
37955;SDS011;23776;51.592;7.180;2024-03-02T09:34:14;2.35;;;1.30;;
37955;SDS011;23776;51.592;7.180;2024-03-02T09:36:40;4.15;;;1.40;;
37955;SDS011;23776;51.592;7.180;2024-03-02T09:39:07;2.35;;;1.33;;
37955;SDS011;23776;51.592;7.180;2024-03-02T09:41:34;3.85;;;1.40;;
37955;SDS011;23776;51.592;7.180;2024-03-02T09:44:02;6.05;;;1.85;;
37955;SDS011;23776;51.592;7.180;2024-03-02T09:46:28;2.45;;;1.20;;
37955;SDS011;23776;51.592;7.180;2024-03-02T09:48:54;4.70;;;2.53;;
37955;SDS011;23776;51.592;7.180;2024-03-02T09:51:19;3.10;;;1.52;;
37955;SDS011;23776;51.592;7.180;2024-03-02T09:53:45;10.13;;;1.40;;
37955;SDS011;23776;51.592;7.180;2024-03-02T09:56:12;3.50;;;1.20;;
37955;SDS011;23776;51.592;7.180;2024-03-02T09:58:38;3.38;;;1.02;;
37955;SDS011;23776;51.592;7.180;2024-03-02T10:01:07;5.03;;;1.30;;
37955;SDS011;23776;51.592;7.180;2024-03-02T10:03:35;1.60;;;0.88;;
37955;SDS011;23776;51.592;7.180;2024-03-02T10:06:21;3.40;;;1.00;;
37955;SDS011;23776;51.592;7.180;2024-03-02T10:08:48;2.50;;;0.98;;
37955;SDS011;23776;51.592;7.180;2024-03-02T10:11:26;3.13;;;1.10;;
37955;SDS011;23776;51.592;7.180;2024-03-02T10:14:06;1.77;;;0.90;;
37955;SDS011;23776;51.592;7.180;2024-03-02T10:16:33;4.00;;;1.15;;
37955;SDS011;23776;51.592;7.180;2024-03-02T10:19:21;1.52;;;0.80;;
37955;SDS011;23776;51.592;7.180;2024-03-02T10:21:48;3.15;;;0.80;;
37955;SDS011;23776;51.592;7.180;2024-03-02T10:24:15;1.48;;;0.75;;
37955;SDS011;23776;51.592;7.180;2024-03-02T10:26:41;3.40;;;1.00;;
37955;SDS011;23776;51.592;7.180;2024-03-02T10:29:08;5.15;;;1.10;;
37955;SDS011;23776;51.592;7.180;2024-03-02T10:31:38;2.15;;;0.70;;
37955;SDS011;23776;51.592;7.180;2024-03-02T10:34:04;2.42;;;0.95;;
37955;SDS011;23776;51.592;7.180;2024-03-02T10:36:31;6.32;;;1.15;;
37955;SDS011;23776;51.592;7.180;2024-03-02T10:39:03;7.25;;;1.20;;
37955;SDS011;23776;51.592;7.180;2024-03-02T10:41:33;3.92;;;1.10;;
37955;SDS011;23776;51.592;7.180;2024-03-02T10:44:03;1.83;;;0.90;;
37955;SDS011;23776;51.592;7.180;2024-03-02T10:46:33;1.27;;;0.68;;
37955;SDS011;23776;51.592;7.180;2024-03-02T10:49:00;1.95;;;1.05;;
37955;SDS011;23776;51.592;7.180;2024-03-02T10:51:27;2.40;;;0.70;;
37955;SDS011;23776;51.592;7.180;2024-03-02T10:53:56;2.53;;;0.80;;
37955;SDS011;23776;51.592;7.180;2024-03-02T10:56:28;2.15;;;0.93;;
37955;SDS011;23776;51.592;7.180;2024-03-02T11:01:38;3.10;;;0.85;;
37955;SDS011;23776;51.592;7.180;2024-03-02T11:04:04;4.00;;;1.13;;
37955;SDS011;23776;51.592;7.180;2024-03-02T11:06:33;1.77;;;0.88;;
37955;SDS011;23776;51.592;7.180;2024-03-02T11:09:04;6.28;;;0.93;;
37955;SDS011;23776;51.592;7.180;2024-03-02T11:11:34;5.75;;;1.05;;
37955;SDS011;23776;51.592;7.180;2024-03-02T11:14:06;4.57;;;1.00;;
37955;SDS011;23776;51.592;7.180;2024-03-02T11:16:36;1.83;;;0.80;;
37955;SDS011;23776;51.592;7.180;2024-03-02T11:19:07;2.35;;;1.00;;
37955;SDS011;23776;51.592;7.180;2024-03-02T11:21:35;2.88;;;0.90;;
37955;SDS011;23776;51.592;7.180;2024-03-02T11:26:46;1.33;;;0.55;;
37955;SDS011;23776;51.592;7.180;2024-03-02T11:29:42;5.82;;;1.10;;
37955;SDS011;23776;51.592;7.180;2024-03-02T11:32:00;1.20;;;0.82;;
37955;SDS011;23776;51.592;7.180;2024-03-02T11:34:30;1.33;;;0.88;;
37955;SDS011;23776;51.592;7.180;2024-03-02T11:36:57;2.92;;;1.25;;
37955;SDS011;23776;51.592;7.180;2024-03-02T11:39:26;3.33;;;1.35;;
37955;SDS011;23776;51.592;7.180;2024-03-02T11:41:53;3.20;;;1.00;;
37955;SDS011;23776;51.592;7.180;2024-03-02T11:44:25;2.42;;;0.80;;
37955;SDS011;23776;51.592;7.180;2024-03-02T11:46:52;4.38;;;0.90;;
37955;SDS011;23776;51.592;7.180;2024-03-02T11:49:36;3.90;;;0.95;;
37955;SDS011;23776;51.592;7.180;2024-03-02T11:52:02;2.55;;;0.95;;
37955;SDS011;23776;51.592;7.180;2024-03-02T11:54:29;2.53;;;0.55;;
37955;SDS011;23776;51.592;7.180;2024-03-02T11:56:58;5.07;;;1.02;;
37955;SDS011;23776;51.592;7.180;2024-03-02T11:59:27;2.58;;;0.70;;
37955;SDS011;23776;51.592;7.180;2024-03-02T12:01:54;1.60;;;0.70;;
37955;SDS011;23776;51.592;7.180;2024-03-02T12:04:20;3.28;;;0.90;;
37955;SDS011;23776;51.592;7.180;2024-03-02T12:06:59;2.10;;;0.40;;
37955;SDS011;23776;51.592;7.180;2024-03-02T12:09:26;0.98;;;0.55;;
37955;SDS011;23776;51.592;7.180;2024-03-02T12:12:05;1.90;;;0.65;;
37955;SDS011;23776;51.592;7.180;2024-03-02T12:14:32;2.05;;;0.90;;
37955;SDS011;23776;51.592;7.180;2024-03-02T12:17:00;3.08;;;1.05;;
37955;SDS011;23776;51.592;7.180;2024-03-02T12:19:26;2.35;;;0.70;;
37955;SDS011;23776;51.592;7.180;2024-03-02T12:21:53;2.08;;;0.70;;
37955;SDS011;23776;51.592;7.180;2024-03-02T12:24:19;4.85;;;1.00;;
37955;SDS011;23776;51.592;7.180;2024-03-02T12:26:46;1.20;;;0.57;;
37955;SDS011;23776;51.592;7.180;2024-03-02T12:29:13;2.92;;;0.93;;
37955;SDS011;23776;51.592;7.180;2024-03-02T12:31:40;2.15;;;0.70;;
37955;SDS011;23776;51.592;7.180;2024-03-02T12:34:06;1.45;;;0.77;;
37955;SDS011;23776;51.592;7.180;2024-03-02T12:36:39;1.35;;;0.80;;
37955;SDS011;23776;51.592;7.180;2024-03-02T12:39:06;2.03;;;0.70;;
37955;SDS011;23776;51.592;7.180;2024-03-02T12:41:35;4.18;;;0.75;;
37955;SDS011;23776;51.592;7.180;2024-03-02T12:44:01;2.25;;;1.05;;
37955;SDS011;23776;51.592;7.180;2024-03-02T12:46:27;1.20;;;0.65;;
37955;SDS011;23776;51.592;7.180;2024-03-02T12:48:53;2.88;;;1.00;;
37955;SDS011;23776;51.592;7.180;2024-03-02T12:51:19;2.05;;;0.80;;
37955;SDS011;23776;51.592;7.180;2024-03-02T12:53:44;2.20;;;0.75;;
37955;SDS011;23776;51.592;7.180;2024-03-02T12:56:10;1.60;;;0.88;;
37955;SDS011;23776;51.592;7.180;2024-03-02T12:58:42;1.60;;;0.65;;
37955;SDS011;23776;51.592;7.180;2024-03-02T13:01:07;2.22;;;0.88;;
37955;SDS011;23776;51.592;7.180;2024-03-02T13:03:40;1.73;;;0.82;;
37955;SDS011;23776;51.592;7.180;2024-03-02T13:06:06;2.33;;;0.68;;
37955;SDS011;23776;51.592;7.180;2024-03-02T13:08:33;1.77;;;0.90;;
37955;SDS011;23776;51.592;7.180;2024-03-02T13:10:59;1.50;;;0.80;;
37955;SDS011;23776;51.592;7.180;2024-03-02T13:13:24;0.93;;;0.80;;
37955;SDS011;23776;51.592;7.180;2024-03-02T13:15:54;2.88;;;0.70;;
37955;SDS011;23776;51.592;7.180;2024-03-02T13:18:21;1.90;;;0.68;;
37955;SDS011;23776;51.592;7.180;2024-03-02T13:20:47;1.48;;;0.70;;
37955;SDS011;23776;51.592;7.180;2024-03-02T13:23:12;3.28;;;0.60;;
37955;SDS011;23776;51.592;7.180;2024-03-02T13:25:39;1.33;;;0.45;;
37955;SDS011;23776;51.592;7.180;2024-03-02T13:28:05;1.00;;;0.60;;
37955;SDS011;23776;51.592;7.180;2024-03-02T13:30:31;2.22;;;1.10;;
37955;SDS011;23776;51.592;7.180;2024-03-02T13:32:57;1.58;;;0.82;;
37955;SDS011;23776;51.592;7.180;2024-03-02T13:35:23;1.58;;;0.70;;
37955;SDS011;23776;51.592;7.180;2024-03-02T13:37:48;1.10;;;0.60;;
37955;SDS011;23776;51.592;7.180;2024-03-02T13:40:15;2.95;;;0.52;;
37955;SDS011;23776;51.592;7.180;2024-03-02T13:42:44;3.22;;;0.60;;
37955;SDS011;23776;51.592;7.180;2024-03-02T13:45:11;1.30;;;0.60;;
37955;SDS011;23776;51.592;7.180;2024-03-02T13:47:37;0.95;;;0.55;;
37955;SDS011;23776;51.592;7.180;2024-03-02T13:50:03;2.75;;;0.70;;
37955;SDS011;23776;51.592;7.180;2024-03-02T13:52:30;2.92;;;0.55;;
37955;SDS011;23776;51.592;7.180;2024-03-02T13:54:56;0.73;;;0.60;;
37955;SDS011;23776;51.592;7.180;2024-03-02T13:57:21;1.17;;;0.47;;
37955;SDS011;23776;51.592;7.180;2024-03-02T13:59:47;1.92;;;0.60;;
37955;SDS011;23776;51.592;7.180;2024-03-02T14:02:13;0.60;;;0.40;;
37955;SDS011;23776;51.592;7.180;2024-03-02T14:04:38;2.55;;;0.60;;
37955;SDS011;23776;51.592;7.180;2024-03-02T14:07:04;0.90;;;0.38;;
37955;SDS011;23776;51.592;7.180;2024-03-02T14:09:33;2.47;;;0.57;;
37955;SDS011;23776;51.592;7.180;2024-03-02T14:11:59;3.72;;;0.80;;
37955;SDS011;23776;51.592;7.180;2024-03-02T14:14:25;2.92;;;0.40;;
37955;SDS011;23776;51.592;7.180;2024-03-02T14:16:52;3.40;;;0.85;;
37955;SDS011;23776;51.592;7.180;2024-03-02T14:19:18;3.60;;;0.60;;
37955;SDS011;23776;51.592;7.180;2024-03-02T14:21:43;1.55;;;0.60;;
37955;SDS011;23776;51.592;7.180;2024-03-02T14:24:09;3.58;;;0.50;;
37955;SDS011;23776;51.592;7.180;2024-03-02T14:26:35;1.35;;;0.77;;
37955;SDS011;23776;51.592;7.180;2024-03-02T14:29:02;2.80;;;0.60;;
37955;SDS011;23776;51.592;7.180;2024-03-02T14:31:28;1.40;;;0.60;;
37955;SDS011;23776;51.592;7.180;2024-03-02T14:33:54;1.77;;;0.47;;
37955;SDS011;23776;51.592;7.180;2024-03-02T14:36:20;1.08;;;0.32;;
37955;SDS011;23776;51.592;7.180;2024-03-02T14:38:46;1.45;;;0.68;;
37955;SDS011;23776;51.592;7.180;2024-03-02T14:41:11;1.40;;;0.73;;
37955;SDS011;23776;51.592;7.180;2024-03-02T14:43:38;1.38;;;0.50;;
37955;SDS011;23776;51.592;7.180;2024-03-02T14:46:04;1.10;;;0.63;;
37955;SDS011;23776;51.592;7.180;2024-03-02T14:48:30;1.83;;;0.75;;
37955;SDS011;23776;51.592;7.180;2024-03-02T14:50:56;1.50;;;0.60;;
37955;SDS011;23776;51.592;7.180;2024-03-02T14:53:22;0.65;;;0.40;;
37955;SDS011;23776;51.592;7.180;2024-03-02T14:55:48;0.80;;;0.50;;
37955;SDS011;23776;51.592;7.180;2024-03-02T14:58:14;0.88;;;0.50;;
37955;SDS011;23776;51.592;7.180;2024-03-02T15:00:40;1.13;;;0.50;;
37955;SDS011;23776;51.592;7.180;2024-03-02T15:03:06;1.02;;;0.50;;
37955;SDS011;23776;51.592;7.180;2024-03-02T15:05:33;1.48;;;0.63;;
37955;SDS011;23776;51.592;7.180;2024-03-02T15:07:59;2.03;;;0.70;;
37955;SDS011;23776;51.592;7.180;2024-03-02T15:10:27;1.63;;;0.80;;